Time;durP1;ratioP1;P1;durP2;ratioP2;P2;SDS_P1;SDS_P2;PMS_P1;PMS_P2;Temp;Humidity;BMP_temperature;BMP_pressure;BME280_temperature;BME280_humidity;BME280_pressure;Samples;Min_cycle;Max_cycle;Signal;HPM_P1;HPM_P2
2023/05/09 00:01:06;;;;;;;73.82;44.25;;;;;;;;;;5091591;27;20046;-80
2023/05/09 00:03:33;;;;;;;72.53;44.20;;;;;;;;;;5092403;27;20723;-81
2023/05/09 00:05:59;;;;;;;70.55;42.75;;;;;;;;;;5084865;27;20395;-80
2023/05/09 00:08:25;;;;;;;79.40;44.42;;;;;;;;;;5094025;27;20047;-80
2023/05/09 00:18:57;;;;;;;79.43;43.88;;;;;;;;;;5020006;28;20045;-80
2023/05/09 00:21:33;;;;;;;81.35;45.80;;;;;;;;;;5552809;22;20095;-77
2023/05/09 00:24:06;;;;;;;83.85;45.15;;;;;;;;;;5571505;22;20342;-82
2023/05/09 00:26:32;;;;;;;73.75;43.17;;;;;;;;;;5729110;22;20053;-80
2023/05/09 00:28:59;;;;;;;75.97;43.83;;;;;;;;;;5023475;28;20063;-80
2023/05/09 00:31:25;;;;;;;78.97;44.60;;;;;;;;;;5038664;28;20055;-80
2023/05/09 00:33:53;;;;;;;75.00;43.97;;;;;;;;;;5024824;28;20399;-80
2023/05/09 00:36:20;;;;;;;71.78;43.75;;;;;;;;;;5038579;28;20040;-81
2023/05/09 00:38:46;;;;;;;70.65;41.33;;;;;;;;;;5026488;28;20698;-80
2023/05/09 00:41:12;;;;;;;70.63;40.50;;;;;;;;;;5044579;28;21875;-80
2023/05/09 00:43:38;;;;;;;64.75;38.58;;;;;;;;;;5031121;28;20044;-80
2023/05/09 00:46:04;;;;;;;62.20;36.92;;;;;;;;;;5013508;28;20106;-80
2023/05/09 00:48:30;;;;;;;68.28;38.40;;;;;;;;;;5026632;28;20052;-80
2023/05/09 00:50:56;;;;;;;61.60;34.83;;;;;;;;;;5029874;28;21682;-80
2023/05/09 00:53:24;;;;;;;67.55;36.30;;;;;;;;;;5044148;28;20044;-80
2023/05/09 00:55:50;;;;;;;72.78;37.97;;;;;;;;;;5043547;28;20086;-80
2023/05/09 00:58:18;;;;;;;73.80;39.58;;;;;;;;;;5028499;28;20746;-80
2023/05/09 01:00:44;;;;;;;73.00;38.03;;;;;;;;;;5046040;28;20055;-81
2023/05/09 01:03:10;;;;;;;70.90;36.70;;;;;;;;;;5043430;28;20040;-81
2023/05/09 01:05:57;;;;;;;71.80;37.35;;;;;;;;;;5033331;28;20072;-81
2023/05/09 01:08:42;;;;;;;70.13;36.20;;;;;;;;;;5046669;28;20045;-81
2023/05/09 01:11:22;;;;;;;74.78;36.90;;;;;;;;;;5030646;28;20142;-81
2023/05/09 01:14:06;;;;;;;75.82;38.40;;;;;;;;;;5046004;28;20073;-80
2023/05/09 01:16:43;;;;;;;76.97;38.25;;;;;;;;;;5030547;28;20050;-80
2023/05/09 01:19:09;;;;;;;73.93;38.08;;;;;;;;;;5034841;28;20173;-81
2023/05/09 01:21:35;;;;;;;69.95;38.10;;;;;;;;;;5047613;28;20447;-80
2023/05/09 01:24:14;;;;;;;74.20;40.00;;;;;;;;;;5048548;28;20573;-81
2023/05/09 01:26:45;;;;;;;78.45;39.85;;;;;;;;;;5038914;28;20051;-81
2023/05/09 01:29:27;;;;;;;68.45;37.35;;;;;;;;;;5067889;28;20056;-79
2023/05/09 01:31:54;;;;;;;77.68;40.80;;;;;;;;;;5049695;28;20048;-79
2023/05/09 01:34:22;;;;;;;86.18;43.50;;;;;;;;;;5062845;28;20048;-80
2023/05/09 01:36:49;;;;;;;95.70;46.83;;;;;;;;;;5042713;28;20048;-80
2023/05/09 01:39:17;;;;;;;102.30;47.53;;;;;;;;;;5054512;28;20483;-80
2023/05/09 01:41:43;;;;;;;89.45;45.83;;;;;;;;;;5071572;28;20133;-80
2023/05/09 01:44:10;;;;;;;82.90;44.28;;;;;;;;;;5043698;28;20129;-80
2023/05/09 01:46:37;;;;;;;83.82;45.08;;;;;;;;;;5048397;28;20050;-80
2023/05/09 01:49:05;;;;;;;93.13;47.05;;;;;;;;;;5043404;28;20117;-78
2023/05/09 01:51:33;;;;;;;90.30;47.22;;;;;;;;;;5063778;28;20416;-79
2023/05/09 01:54:00;;;;;;;84.90;46.53;;;;;;;;;;5057190;28;20040;-80
2023/05/09 01:56:27;;;;;;;79.03;44.33;;;;;;;;;;5055302;28;20086;-79
2023/05/09 01:58:55;;;;;;;82.45;45.63;;;;;;;;;;5045845;28;20040;-80
2023/05/09 02:01:21;;;;;;;79.53;43.45;;;;;;;;;;5055704;28;20041;-79
2023/05/09 02:03:49;;;;;;;70.47;41.70;;;;;;;;;;5028762;28;20043;-80
2023/05/09 02:06:16;;;;;;;69.85;41.58;;;;;;;;;;5041417;28;20553;-79
2023/05/09 02:08:43;;;;;;;71.40;42.33;;;;;;;;;;5073185;27;20646;-80
2023/05/09 02:11:09;;;;;;;69.82;41.20;;;;;;;;;;5021063;28;20041;-80
2023/05/09 02:13:37;;;;;;;66.97;39.63;;;;;;;;;;5054758;28;20043;-79
2023/05/09 02:16:03;;;;;;;68.60;40.53;;;;;;;;;;5036176;28;20081;-78
2023/05/09 02:18:31;;;;;;;75.03;42.40;;;;;;;;;;5020093;28;20039;-79
2023/05/09 02:20:57;;;;;;;68.28;39.55;;;;;;;;;;5035519;28;20101;-80
2023/05/09 02:23:23;;;;;;;71.53;42.00;;;;;;;;;;5069729;27;20044;-79
2023/05/09 02:25:50;;;;;;;77.45;42.67;;;;;;;;;;5051075;28;21048;-80
2023/05/09 02:28:17;;;;;;;69.72;41.00;;;;;;;;;;5070748;27;20106;-80
2023/05/09 02:30:45;;;;;;;70.05;41.65;;;;;;;;;;5034248;28;20638;-80
2023/05/09 02:33:12;;;;;;;70.40;41.15;;;;;;;;;;5054114;28;20055;-79
2023/05/09 02:35:41;;;;;;;69.72;39.33;;;;;;;;;;5037754;28;20766;-80
2023/05/09 02:38:07;;;;;;;60.88;37.42;;;;;;;;;;5036243;28;20040;-81
2023/05/09 02:40:33;;;;;;;61.28;34.58;;;;;;;;;;5031445;28;20406;-80
2023/05/09 02:42:59;;;;;;;52.65;32.15;;;;;;;;;;5017374;28;20636;-81
2023/05/09 02:45:25;;;;;;;49.20;30.23;;;;;;;;;;5029040;28;20072;-81
2023/05/09 02:47:51;;;;;;;40.47;26.02;;;;;;;;;;5016958;28;20701;-81
2023/05/09 02:50:18;;;;;;;32.55;22.08;;;;;;;;;;5034059;28;20043;-86
2023/05/09 02:52:44;;;;;;;25.15;19.73;;;;;;;;;;5035777;28;20051;-84
2023/05/09 02:55:10;;;;;;;22.90;17.25;;;;;;;;;;5075786;27;20066;-84
2023/05/09 02:57:37;;;;;;;18.45;15.50;;;;;;;;;;5041713;28;20036;-85
2023/05/09 03:00:08;;;;;;;20.45;15.45;;;;;;;;;;5035881;28;20036;-85
2023/05/09 03:02:34;;;;;;;17.13;15.32;;;;;;;;;;5052703;28;20258;-85
2023/05/09 03:05:00;;;;;;;17.42;15.60;;;;;;;;;;5045890;28;20034;-84
2023/05/09 03:07:26;;;;;;;16.40;14.52;;;;;;;;;;5062086;28;21228;-84
2023/05/09 03:09:52;;;;;;;18.60;15.07;;;;;;;;;;5044871;28;20140;-83
2023/05/09 03:12:19;;;;;;;18.50;15.65;;;;;;;;;;5062454;28;20114;-85
2023/05/09 03:14:45;;;;;;;15.50;13.90;;;;;;;;;;5045037;28;20059;-85
2023/05/09 03:17:11;;;;;;;15.40;13.82;;;;;;;;;;5049550;28;20056;-84
2023/05/09 03:19:37;;;;;;;15.75;14.20;;;;;;;;;;5052991;28;20369;-84
2023/05/09 03:22:03;;;;;;;15.93;14.20;;;;;;;;;;5070702;28;20059;-83
2023/05/09 03:24:29;;;;;;;18.20;15.00;;;;;;;;;;5052028;28;20167;-84
2023/05/09 03:26:55;;;;;;;16.50;14.80;;;;;;;;;;5048040;28;20073;-84
2023/05/09 03:29:21;;;;;;;20.88;15.45;;;;;;;;;;5041089;28;20059;-85
2023/05/09 03:31:48;;;;;;;17.08;15.27;;;;;;;;;;5043572;28;20047;-84
2023/05/09 03:34:14;;;;;;;19.30;15.60;;;;;;;;;;5060800;28;20046;-85
2023/05/09 03:36:43;;;;;;;16.15;14.35;;;;;;;;;;5061402;28;20040;-85
2023/05/09 03:39:10;;;;;;;18.67;16.67;;;;;;;;;;5044901;28;20040;-85
2023/05/09 03:41:36;;;;;;;17.52;15.65;;;;;;;;;;5058172;28;20134;-85
2023/05/09 03:44:03;;;;;;;18.52;15.75;;;;;;;;;;5028339;28;20036;-84
2023/05/09 03:46:29;;;;;;;20.77;15.73;;;;;;;;;;5024179;28;20096;-85
2023/05/09 03:48:55;;;;;;;18.00;15.95;;;;;;;;;;5041801;28;20139;-85
2023/05/09 03:51:21;;;;;;;20.83;16.23;;;;;;;;;;5039638;28;20175;-84
2023/05/09 03:53:47;;;;;;;18.98;16.88;;;;;;;;;;5041412;28;20051;-85
2023/05/09 03:56:14;;;;;;;19.67;17.58;;;;;;;;;;5058790;28;20054;-85
2023/05/09 03:58:40;;;;;;;19.52;16.98;;;;;;;;;;5059974;28;20043;-85
2023/05/09 04:01:06;;;;;;;20.25;16.55;;;;;;;;;;5037139;28;20533;-84
2023/05/09 04:03:32;;;;;;;19.17;16.70;;;;;;;;;;5051857;28;20511;-85
2023/05/09 04:05:58;;;;;;;24.40;18.20;;;;;;;;;;5038973;28;20093;-86
2023/05/09 04:08:25;;;;;;;19.00;16.90;;;;;;;;;;5024206;28;20558;-85
2023/05/09 04:10:51;;;;;;;19.80;17.70;;;;;;;;;;5055588;28;20052;-86
2023/05/09 04:13:17;;;;;;;19.25;17.23;;;;;;;;;;5042181;28;20043;-85
2023/05/09 04:15:43;;;;;;;24.98;18.10;;;;;;;;;;5058395;28;20460;-84
2023/05/09 04:18:09;;;;;;;19.92;17.45;;;;;;;;;;5043588;28;20141;-84
2023/05/09 04:20:36;;;;;;;20.92;18.70;;;;;;;;;;5025678;28;20050;-82
2023/05/09 04:23:02;;;;;;;21.27;18.40;;;;;;;;;;5058219;28;20209;-87
2023/05/09 04:25:29;;;;;;;23.10;19.70;;;;;;;;;;5048561;28;20036;-85
2023/05/09 04:28:10;;;;;;;24.63;20.70;;;;;;;;;;5100529;27;21186;-87
2023/05/09 04:30:36;;;;;;;22.77;20.00;;;;;;;;;;5062374;28;20489;-85
2023/05/09 04:33:03;;;;;;;25.02;19.92;;;;;;;;;;5043543;28;20032;-87
2023/05/09 04:35:29;;;;;;;22.30;19.20;;;;;;;;;;5059077;28;20486;-85
2023/05/09 04:37:55;;;;;;;24.63;19.13;;;;;;;;;;5071754;28;20556;-86
2023/05/09 04:40:21;;;;;;;21.98;19.02;;;;;;;;;;5062607;28;20525;-86
2023/05/09 04:42:48;;;;;;;22.17;19.77;;;;;;;;;;5073638;28;20044;-86
2023/05/09 04:45:14;;;;;;;22.58;19.75;;;;;;;;;;5056485;28;20051;-85
2023/05/09 04:47:40;;;;;;;22.05;19.65;;;;;;;;;;5044721;28;20740;-85
2023/05/09 04:50:07;;;;;;;23.30;19.60;;;;;;;;;;5054542;28;20049;-85
2023/05/09 04:52:33;;;;;;;22.65;19.85;;;;;;;;;;5060619;28;20093;-87
2023/05/09 04:54:59;;;;;;;21.98;18.92;;;;;;;;;;5053649;28;20078;-86
2023/05/09 04:57:26;;;;;;;22.13;19.83;;;;;;;;;;5070704;28;20127;-87
2023/05/09 04:59:52;;;;;;;21.20;18.88;;;;;;;;;;5060180;28;20463;-85
2023/05/09 05:02:18;;;;;;;22.42;18.67;;;;;;;;;;5079073;28;20039;-84
2023/05/09 05:04:44;;;;;;;21.63;19.27;;;;;;;;;;5083176;28;20051;-84
2023/05/09 05:07:10;;;;;;;20.92;18.65;;;;;;;;;;5071486;28;20065;-85
2023/05/09 05:09:36;;;;;;;20.52;18.33;;;;;;;;;;5058583;28;20441;-87
2023/05/09 05:12:05;;;;;;;22.17;19.23;;;;;;;;;;5065530;28;20386;-87
2023/05/09 05:14:32;;;;;;;20.92;18.60;;;;;;;;;;5058335;28;20047;-83
2023/05/09 05:16:58;;;;;;;24.38;20.02;;;;;;;;;;5093500;27;20127;-86
2023/05/09 05:19:24;;;;;;;25.73;20.67;;;;;;;;;;5081487;28;20626;-86
2023/05/09 05:21:50;;;;;;;23.70;20.95;;;;;;;;;;5062966;28;20125;-86
2023/05/09 05:24:16;;;;;;;29.25;21.25;;;;;;;;;;5073846;28;20043;-86
2023/05/09 05:26:43;;;;;;;27.92;19.80;;;;;;;;;;5055086;28;20590;-86
2023/05/09 05:29:09;;;;;;;25.70;19.75;;;;;;;;;;5074448;28;20047;-86
2023/05/09 05:31:35;;;;;;;25.10;20.88;;;;;;;;;;5061745;28;20113;-86
2023/05/09 05:34:01;;;;;;;23.90;21.08;;;;;;;;;;5059044;28;20039;-88
2023/05/09 05:36:28;;;;;;;23.63;19.48;;;;;;;;;;5074496;28;20530;-86
2023/05/09 05:38:54;;;;;;;28.17;21.42;;;;;;;;;;5048459;28;20040;-87
2023/05/09 05:41:20;;;;;;;27.38;19.98;;;;;;;;;;5061807;28;20036;-87
2023/05/09 05:43:46;;;;;;;25.83;21.50;;;;;;;;;;5063416;28;20058;-88
2023/05/09 05:46:12;;;;;;;25.27;21.33;;;;;;;;;;5045293;28;20063;-86
2023/05/09 05:48:38;;;;;;;25.40;21.23;;;;;;;;;;5035587;28;20074;-85
2023/05/09 05:51:04;;;;;;;24.60;21.05;;;;;;;;;;5062359;28;20041;-87
2023/05/09 05:53:30;;;;;;;22.80;20.15;;;;;;;;;;5059608;28;21566;-87
2023/05/09 05:56:00;;;;;;;23.83;21.10;;;;;;;;;;5049380;28;20036;-86
2023/05/09 05:58:26;;;;;;;25.08;20.95;;;;;;;;;;5042636;28;20171;-86
2023/05/09 06:00:53;;;;;;;23.67;20.85;;;;;;;;;;5043469;28;20086;-87
2023/05/09 06:03:19;;;;;;;23.20;20.70;;;;;;;;;;5026284;28;20040;-87
2023/05/09 06:05:46;;;;;;;25.90;22.42;;;;;;;;;;5044914;28;20040;-87
2023/05/09 06:08:12;;;;;;;24.25;21.65;;;;;;;;;;5061257;28;20037;-87
2023/05/09 06:10:38;;;;;;;22.70;20.30;;;;;;;;;;5060634;28;20131;-86
2023/05/09 06:13:04;;;;;;;23.10;20.60;;;;;;;;;;5062644;28;20098;-87
2023/05/09 06:15:30;;;;;;;27.98;22.58;;;;;;;;;;5067930;28;20632;-86
2023/05/09 06:17:57;;;;;;;23.90;21.10;;;;;;;;;;5056010;28;20074;-87
2023/05/09 06:20:23;;;;;;;25.48;21.67;;;;;;;;;;5072333;28;20048;-88
2023/05/09 06:22:49;;;;;;;26.88;21.55;;;;;;;;;;5082995;28;20143;-80
2023/05/09 06:25:15;;;;;;;23.70;21.23;;;;;;;;;;5070626;28;21173;-87
2023/05/09 06:27:41;;;;;;;25.45;22.15;;;;;;;;;;5034612;28;20060;-86
2023/05/09 06:30:08;;;;;;;28.92;22.58;;;;;;;;;;5078140;28;20046;-70
2023/05/09 06:32:34;;;;;;;25.15;22.17;;;;;;;;;;5058641;28;20040;-69
2023/05/09 06:35:02;;;;;;;25.42;22.73;;;;;;;;;;5056888;28;20170;-69
2023/05/09 06:37:32;;;;;;;26.50;23.40;;;;;;;;;;5056013;28;20133;-70
2023/05/09 06:39:58;;;;;;;28.08;23.73;;;;;;;;;;5072245;28;20048;-70
2023/05/09 06:42:24;;;;;;;26.50;23.65;;;;;;;;;;5055770;28;20157;-70
2023/05/09 06:44:50;;;;;;;28.17;24.42;;;;;;;;;;5023692;28;20051;-69
2023/05/09 06:47:17;;;;;;;28.77;23.77;;;;;;;;;;5055301;28;20047;-70
2023/05/09 06:49:43;;;;;;;27.60;23.27;;;;;;;;;;5056452;28;20032;-69
2023/05/09 06:52:09;;;;;;;28.35;24.20;;;;;;;;;;5052783;28;20044;-70
2023/05/09 06:54:35;;;;;;;28.33;23.27;;;;;;;;;;5053312;28;20039;-70
2023/05/09 06:57:01;;;;;;;27.30;24.42;;;;;;;;;;5069124;28;21943;-69
2023/05/09 06:59:27;;;;;;;26.52;23.55;;;;;;;;;;5052612;28;20047;-69
2023/05/09 07:01:53;;;;;;;28.80;23.70;;;;;;;;;;5055437;28;21972;-69
2023/05/09 07:04:19;;;;;;;28.80;24.95;;;;;;;;;;5054924;28;20399;-69
2023/05/09 07:06:45;;;;;;;29.88;24.50;;;;;;;;;;5052941;28;20049;-69
2023/05/09 07:09:14;;;;;;;26.63;23.73;;;;;;;;;;5069158;28;20753;-69
2023/05/09 07:11:40;;;;;;;28.13;23.58;;;;;;;;;;5054172;28;21697;-69
2023/05/09 07:14:06;;;;;;;28.45;23.67;;;;;;;;;;5052029;28;20130;-69
2023/05/09 07:16:32;;;;;;;30.20;24.45;;;;;;;;;;5054440;28;20131;-69
2023/05/09 07:18:58;;;;;;;31.70;22.83;;;;;;;;;;5052921;28;20637;-69
2023/05/09 07:21:24;;;;;;;25.13;22.52;;;;;;;;;;5038334;28;20991;-69
2023/05/09 07:23:50;;;;;;;25.35;22.38;;;;;;;;;;5056059;28;20036;-69
2023/05/09 07:26:16;;;;;;;29.63;24.50;;;;;;;;;;5057681;28;20051;-68
2023/05/09 07:28:42;;;;;;;29.65;22.95;;;;;;;;;;5058814;28;20131;-69
2023/05/09 07:31:08;;;;;;;26.65;23.52;;;;;;;;;;5056539;28;20039;-70
2023/05/09 07:33:35;;;;;;;26.50;23.63;;;;;;;;;;5055022;28;20046;-69
2023/05/09 07:36:01;;;;;;;27.70;22.45;;;;;;;;;;5057686;28;20048;-70
2023/05/09 07:38:27;;;;;;;27.65;24.20;;;;;;;;;;5058271;28;20044;-70
2023/05/09 07:40:53;;;;;;;28.45;25.42;;;;;;;;;;5058464;28;20066;-70
2023/05/09 07:43:19;;;;;;;35.05;27.65;;;;;;;;;;5058651;28;20044;-70
2023/05/09 07:45:45;;;;;;;32.85;27.38;;;;;;;;;;5073801;28;21676;-69
2023/05/09 07:48:12;;;;;;;32.90;26.88;;;;;;;;;;5059415;28;20488;-70
2023/05/09 07:50:38;;;;;;;32.63;28.25;;;;;;;;;;5074503;28;20471;-69
2023/05/09 07:53:04;;;;;;;32.90;28.38;;;;;;;;;;5056704;28;20129;-69
2023/05/09 07:55:30;;;;;;;34.13;27.60;;;;;;;;;;5056618;28;20044;-69
2023/05/09 07:57:56;;;;;;;44.78;30.13;;;;;;;;;;5058529;28;20418;-69
2023/05/09 08:00:22;;;;;;;39.80;31.00;;;;;;;;;;5060194;28;20044;-69
2023/05/09 08:02:50;;;;;;;44.42;32.85;;;;;;;;;;5048579;28;20048;-69
2023/05/09 08:05:16;;;;;;;43.40;31.13;;;;;;;;;;5059716;28;20135;-77
2023/05/09 08:07:42;;;;;;;40.92;29.45;;;;;;;;;;5060740;28;20117;-78
2023/05/09 08:10:10;;;;;;;41.22;29.42;;;;;;;;;;5058570;28;20048;-76
2023/05/09 08:12:36;;;;;;;38.03;30.63;;;;;;;;;;5061440;28;20044;-78
2023/05/09 08:15:02;;;;;;;39.45;31.40;;;;;;;;;;5057358;28;20066;-78
2023/05/09 08:17:28;;;;;;;39.50;31.05;;;;;;;;;;5058293;28;21762;-77
2023/05/09 08:19:54;;;;;;;42.42;31.95;;;;;;;;;;5059771;28;20095;-78
2023/05/09 08:22:20;;;;;;;41.53;33.63;;;;;;;;;;5059396;28;20051;-78
2023/05/09 08:24:47;;;;;;;38.10;31.10;;;;;;;;;;5060753;28;20040;-76
2023/05/09 08:27:14;;;;;;;40.42;30.90;;;;;;;;;;5058364;28;20064;-78
2023/05/09 08:29:40;;;;;;;42.22;31.92;;;;;;;;;;5066971;28;20078;-77
2023/05/09 08:32:06;;;;;;;43.63;33.17;;;;;;;;;;5059487;28;20040;-77
2023/05/09 08:34:33;;;;;;;42.58;32.45;;;;;;;;;;5061140;28;20036;-76
2023/05/09 08:37:00;;;;;;;46.40;33.38;;;;;;;;;;5061019;28;20066;-77
2023/05/09 08:39:26;;;;;;;44.22;34.67;;;;;;;;;;5075835;28;20490;-77
2023/05/09 08:41:52;;;;;;;48.65;35.42;;;;;;;;;;5060907;28;20052;-77
2023/05/09 08:44:22;;;;;;;53.38;36.83;;;;;;;;;;5059166;28;20049;-77
2023/05/09 08:46:49;;;;;;;50.65;36.58;;;;;;;;;;5061024;28;20578;-77
2023/05/09 08:49:15;;;;;;;57.15;38.75;;;;;;;;;;5062181;28;20465;-77
2023/05/09 08:51:41;;;;;;;53.72;37.80;;;;;;;;;;5060658;28;20041;-77
2023/05/09 08:54:08;;;;;;;58.22;37.65;;;;;;;;;;5058925;28;20487;-77
2023/05/09 08:56:35;;;;;;;57.75;38.35;;;;;;;;;;5059887;28;20056;-77
2023/05/09 08:59:01;;;;;;;61.55;39.63;;;;;;;;;;5059549;28;20044;-77
2023/05/09 09:01:27;;;;;;;66.40;39.60;;;;;;;;;;5059947;28;20097;-77
2023/05/09 09:03:53;;;;;;;62.75;40.55;;;;;;;;;;5061139;28;20047;-77
2023/05/09 09:06:21;;;;;;;66.82;40.55;;;;;;;;;;5058680;28;20492;-70
2023/05/09 09:08:47;;;;;;;65.40;40.92;;;;;;;;;;5057380;28;20048;-70
2023/05/09 09:11:14;;;;;;;66.18;40.05;;;;;;;;;;5039561;28;20072;-70
2023/05/09 09:13:40;;;;;;;70.10;42.75;;;;;;;;;;5058923;28;20048;-68
2023/05/09 09:16:14;;;;;;;61.15;39.67;;;;;;;;;;5061085;28;21683;-68
2023/05/09 09:18:40;;;;;;;63.33;41.67;;;;;;;;;;5064516;28;20054;-69
2023/05/09 09:21:08;;;;;;;71.45;44.50;;;;;;;;;;5060843;28;20164;-69
2023/05/09 09:23:36;;;;;;;67.47;41.47;;;;;;;;;;5061104;28;20048;-69
2023/05/09 09:26:06;;;;;;;70.32;42.95;;;;;;;;;;5060596;28;20353;-69
2023/05/09 09:28:32;;;;;;;70.28;42.03;;;;;;;;;;5059935;28;21791;-69
2023/05/09 09:30:58;;;;;;;65.97;41.40;;;;;;;;;;5060855;28;20185;-69
2023/05/09 09:33:25;;;;;;;64.47;40.38;;;;;;;;;;5060623;28;20041;-69
2023/05/09 09:35:52;;;;;;;65.82;40.72;;;;;;;;;;5044650;28;20526;-70
2023/05/09 09:38:19;;;;;;;68.60;40.65;;;;;;;;;;5058551;28;20040;-69
2023/05/09 09:40:51;;;;;;;68.15;41.75;;;;;;;;;;5060565;28;20054;-69
2023/05/09 09:43:18;;;;;;;62.75;39.38;;;;;;;;;;5059604;28;20106;-70
2023/05/09 09:45:48;;;;;;;64.07;38.90;;;;;;;;;;5062440;28;20044;-70
2023/05/09 09:48:14;;;;;;;67.82;40.30;;;;;;;;;;5059642;28;20476;-70
2023/05/09 09:50:40;;;;;;;67.20;40.30;;;;;;;;;;5062189;28;20040;-70
2023/05/09 09:53:06;;;;;;;63.15;39.58;;;;;;;;;;5061974;28;20427;-70
2023/05/09 09:55:34;;;;;;;66.82;40.83;;;;;;;;;;5049738;28;20777;-70
2023/05/09 09:58:00;;;;;;;65.53;40.03;;;;;;;;;;5059484;28;20094;-69
2023/05/09 10:00:27;;;;;;;63.63;40.38;;;;;;;;;;5061454;28;20086;-69
2023/05/09 10:02:54;;;;;;;60.42;38.33;;;;;;;;;;5060741;28;20407;-69
2023/05/09 10:05:20;;;;;;;63.35;37.22;;;;;;;;;;5060512;28;20041;-69
2023/05/09 10:07:52;;;;;;;58.00;38.03;;;;;;;;;;5060354;28;20514;-68
2023/05/09 10:10:18;;;;;;;61.88;38.78;;;;;;;;;;5061926;28;20071;-69
2023/05/09 10:12:45;;;;;;;60.00;38.67;;;;;;;;;;5060364;28;20711;-69
2023/05/09 10:15:12;;;;;;;56.63;37.35;;;;;;;;;;5060023;28;20040;-68
2023/05/09 10:17:38;;;;;;;58.00;36.67;;;;;;;;;;5062155;28;20039;-69
2023/05/09 10:20:05;;;;;;;59.72;37.70;;;;;;;;;;5045778;28;20131;-69
2023/05/09 10:22:35;;;;;;;54.42;35.88;;;;;;;;;;5059142;28;20151;-69
2023/05/09 10:25:03;;;;;;;54.72;35.47;;;;;;;;;;5060413;28;20445;-68
2023/05/09 10:27:31;;;;;;;56.53;37.08;;;;;;;;;;5058321;28;20109;-69
2023/05/09 10:30:05;;;;;;;54.05;34.05;;;;;;;;;;5045256;28;20040;-69
2023/05/09 10:32:38;;;;;;;49.13;35.50;;;;;;;;;;5058978;28;20079;-70
2023/05/09 10:35:05;;;;;;;53.47;32.85;;;;;;;;;;5058651;28;20080;-69
2023/05/09 10:37:31;;;;;;;49.45;35.10;;;;;;;;;;5061636;28;20175;-69
2023/05/09 10:40:00;;;;;;;54.80;36.47;;;;;;;;;;5060033;28;20052;-70
2023/05/09 10:42:27;;;;;;;50.03;35.15;;;;;;;;;;5060653;28;20095;-69
2023/05/09 10:44:53;;;;;;;50.88;33.60;;;;;;;;;;5064059;28;20496;-70
2023/05/09 10:47:20;;;;;;;51.38;34.60;;;;;;;;;;5057898;28;20046;-70
2023/05/09 10:49:46;;;;;;;47.72;32.83;;;;;;;;;;5061140;28;20475;-70
2023/05/09 10:52:13;;;;;;;45.83;33.35;;;;;;;;;;5040621;28;20120;-70
2023/05/09 10:54:39;;;;;;;51.55;34.83;;;;;;;;;;5060670;28;20430;-69
2023/05/09 10:57:09;;;;;;;52.35;35.60;;;;;;;;;;5059528;28;20036;-70
2023/05/09 10:59:39;;;;;;;56.95;37.50;;;;;;;;;;5060347;28;20036;-69
2023/05/09 11:02:11;;;;;;;51.30;35.67;;;;;;;;;;5075458;27;20401;-70
2023/05/09 11:04:38;;;;;;;51.72;35.45;;;;;;;;;;5057966;28;20188;-70
2023/05/09 11:07:06;;;;;;;51.95;36.25;;;;;;;;;;5058698;28;20105;-69
2023/05/09 11:09:32;;;;;;;51.38;35.97;;;;;;;;;;5059377;28;20047;-69
2023/05/09 11:12:04;;;;;;;55.65;38.08;;;;;;;;;;5060093;28;20121;-69
2023/05/09 11:14:37;;;;;;;60.33;38.10;;;;;;;;;;5060165;28;20078;-70
2023/05/09 11:17:03;;;;;;;54.42;35.92;;;;;;;;;;5058713;28;21290;-69
2023/05/09 11:19:53;;;;;;;49.42;34.67;;;;;;;;;;5059131;28;20789;-68
2023/05/09 11:22:19;;;;;;;57.13;36.53;;;;;;;;;;5058123;28;20079;-68
2023/05/09 11:24:46;;;;;;;59.63;37.33;;;;;;;;;;5058936;28;20040;-70
2023/05/09 11:27:19;;;;;;;56.67;35.90;;;;;;;;;;5038765;28;20063;-69
2023/05/09 11:29:49;;;;;;;55.50;35.90;;;;;;;;;;5058138;28;20631;-70
2023/05/09 11:32:16;;;;;;;49.25;34.13;;;;;;;;;;5058754;28;20480;-70
2023/05/09 11:34:44;;;;;;;47.40;33.50;;;;;;;;;;5058041;28;20044;-70
2023/05/09 11:37:12;;;;;;;55.28;35.83;;;;;;;;;;5060472;28;20079;-69
2023/05/09 11:39:58;;;;;;;56.72;35.97;;;;;;;;;;5059882;28;20044;-70
2023/05/09 11:42:25;;;;;;;55.60;37.17;;;;;;;;;;5060038;28;20513;-70
2023/05/09 11:44:51;;;;;;;55.72;36.70;;;;;;;;;;5057582;28;20544;-70
2023/05/09 11:47:17;;;;;;;58.90;37.17;;;;;;;;;;5059267;28;20044;-70
2023/05/09 11:49:44;;;;;;;60.85;39.00;;;;;;;;;;5057272;28;20037;-70
2023/05/09 11:52:10;;;;;;;60.60;38.90;;;;;;;;;;5058140;28;21738;-70
2023/05/09 11:54:40;;;;;;;58.55;38.03;;;;;;;;;;5058582;28;20067;-77
2023/05/09 11:57:06;;;;;;;62.85;39.00;;;;;;;;;;5078262;28;20142;-77
2023/05/09 11:59:33;;;;;;;63.45;41.03;;;;;;;;;;5043400;28;20059;-77
2023/05/09 12:02:06;;;;;;;58.55;38.58;;;;;;;;;;5059851;28;20055;-77
2023/05/09 12:04:32;;;;;;;58.33;36.63;;;;;;;;;;5062277;28;20578;-77
2023/05/09 12:06:59;;;;;;;60.20;38.78;;;;;;;;;;5075746;28;20648;-77
2023/05/09 12:09:32;;;;;;;62.92;39.22;;;;;;;;;;5060279;28;20170;-77
2023/05/09 12:11:59;;;;;;;62.20;40.03;;;;;;;;;;5059732;28;20174;-77
2023/05/09 12:14:29;;;;;;;64.38;40.78;;;;;;;;;;5062119;28;20075;-77
2023/05/09 12:16:56;;;;;;;67.55;40.28;;;;;;;;;;5058604;28;20078;-77
2023/05/09 12:19:23;;;;;;;63.85;38.88;;;;;;;;;;5061652;28;20045;-77
2023/05/09 12:21:54;;;;;;;70.45;41.83;;;;;;;;;;5075851;28;20459;-77
2023/05/09 12:24:20;;;;;;;65.32;40.55;;;;;;;;;;5059011;28;20191;-77
2023/05/09 12:26:47;;;;;;;62.33;38.42;;;;;;;;;;5061812;28;20539;-77
2023/05/09 12:29:14;;;;;;;65.28;41.00;;;;;;;;;;5059089;28;20221;-79
2023/05/09 12:31:41;;;;;;;64.90;39.17;;;;;;;;;;5058492;28;20745;-76
2023/05/09 12:34:11;;;;;;;61.22;37.92;;;;;;;;;;5060797;28;20043;-81
2023/05/09 12:36:37;;;;;;;57.38;37.95;;;;;;;;;;5043989;28;20044;-77
2023/05/09 12:39:09;;;;;;;56.08;36.95;;;;;;;;;;5060941;28;20062;-77
2023/05/09 12:41:35;;;;;;;63.05;39.15;;;;;;;;;;5060003;28;20080;-77
2023/05/09 12:44:02;;;;;;;63.30;38.60;;;;;;;;;;5058955;28;20043;-77
2023/05/09 12:46:28;;;;;;;61.08;39.03;;;;;;;;;;5058524;28;20453;-76
2023/05/09 12:48:55;;;;;;;62.70;38.70;;;;;;;;;;5063123;28;20104;-76
2023/05/09 12:51:21;;;;;;;61.70;38.20;;;;;;;;;;5064409;28;20052;-76
2023/05/09 12:53:48;;;;;;;62.63;38.65;;;;;;;;;;5062481;28;21557;-76
2023/05/09 12:56:15;;;;;;;60.17;39.67;;;;;;;;;;5044542;28;20051;-75
2023/05/09 12:58:48;;;;;;;65.30;39.83;;;;;;;;;;5053861;28;20028;-77
2023/05/09 13:01:14;;;;;;;61.23;37.93;;;;;;;;;;5064106;28;20032;-77
2023/05/09 13:03:41;;;;;;;62.45;40.80;;;;;;;;;;5064942;28;20290;-77
2023/05/09 13:06:14;;;;;;;68.35;41.70;;;;;;;;;;5062981;28;20036;-77
2023/05/09 13:08:40;;;;;;;62.83;42.22;;;;;;;;;;5062968;28;20130;-77
2023/05/09 13:11:11;;;;;;;71.05;42.10;;;;;;;;;;5064709;28;20043;-77
2023/05/09 13:13:38;;;;;;;68.30;45.20;;;;;;;;;;5061300;28;20051;-77
2023/05/09 13:16:05;;;;;;;66.60;43.95;;;;;;;;;;5079695;28;20048;-77
2023/05/09 13:18:31;;;;;;;70.88;45.30;;;;;;;;;;5064245;28;20422;-77
2023/05/09 13:20:57;;;;;;;80.57;48.58;;;;;;;;;;5063883;28;20154;-77
2023/05/09 13:23:23;;;;;;;71.43;44.85;;;;;;;;;;5064025;28;20044;-77
2023/05/09 13:25:50;;;;;;;73.30;45.97;;;;;;;;;;5053876;28;20047;-76
2023/05/09 13:28:16;;;;;;;74.07;44.42;;;;;;;;;;5061619;28;20044;-76
2023/05/09 13:30:42;;;;;;;78.68;46.75;;;;;;;;;;5063311;28;20051;-77
2023/05/09 13:33:08;;;;;;;79.82;47.10;;;;;;;;;;5064090;28;20390;-76
2023/05/09 13:35:34;;;;;;;79.93;46.53;;;;;;;;;;5063758;28;20052;-76
2023/05/09 13:38:01;;;;;;;84.57;49.13;;;;;;;;;;5053931;28;20187;-76
2023/05/09 13:40:27;;;;;;;79.43;46.97;;;;;;;;;;5063706;28;20047;-76
2023/05/09 13:42:53;;;;;;;84.90;48.53;;;;;;;;;;5063222;28;20109;-76
2023/05/09 13:45:19;;;;;;;86.10;50.53;;;;;;;;;;5063708;28;20052;-76
2023/05/09 13:47:45;;;;;;;78.97;46.70;;;;;;;;;;5062300;28;20056;-77
2023/05/09 13:50:12;;;;;;;76.68;44.67;;;;;;;;;;5050700;28;20095;-77
2023/05/09 13:52:38;;;;;;;77.68;44.95;;;;;;;;;;5079363;28;20050;-76
2023/05/09 13:55:04;;;;;;;67.85;41.90;;;;;;;;;;5078747;28;20143;-76
2023/05/09 13:57:30;;;;;;;64.88;40.35;;;;;;;;;;5044502;28;20050;-77
2023/05/09 13:59:56;;;;;;;58.10;35.85;;;;;;;;;;5062266;28;20040;-78
2023/05/09 14:02:23;;;;;;;61.28;36.85;;;;;;;;;;5079746;28;21950;-80
2023/05/09 14:04:49;;;;;;;55.90;35.67;;;;;;;;;;5062110;28;20793;-78
2023/05/09 14:07:16;;;;;;;55.40;33.90;;;;;;;;;;5063612;28;20044;-79
2023/05/09 14:09:42;;;;;;;56.67;35.40;;;;;;;;;;5060529;28;20601;-78
2023/05/09 14:12:09;;;;;;;53.42;34.15;;;;;;;;;;5047625;28;20115;-79
2023/05/09 14:14:35;;;;;;;56.75;33.15;;;;;;;;;;5058567;28;20086;-79
2023/05/09 14:17:01;;;;;;;58.38;34.90;;;;;;;;;;5063794;28;20491;-78
2023/05/09 14:19:29;;;;;;;58.58;35.47;;;;;;;;;;5060844;28;20093;-78
2023/05/09 14:21:55;;;;;;;62.00;35.72;;;;;;;;;;5035357;28;20170;-80
2023/05/09 14:24:21;;;;;;;64.68;38.95;;;;;;;;;;5065583;28;20250;-80